Terminal Aerodrome Forecast
Issued by NWS

Home | Current Version | Previous Version | Text Only | Print | Product List | Glossary On
Versions: 1 2 3 4 5 6 7 8 9 10 11 12 13 14
000
FTUS42 KGSP 282320
TAFAND
TAF
KAND 282320Z 2900/2924 VRB03KT P6SM SCT060 BKN110
      TEMPO 2900/2904 BKN060
     FM290900 VRB03KT 3SM BR FEW030 SCT060
     FM291300 15003KT P6SM SCT060
     FM291800 16003KT P6SM BKN060 PROB30 2920/2924 4SM TSRA
      BKN040CB=

USA.gov is the U.S. government's official web portal to all federal, state and local government web resources and services.